createdAt,value
2022-09-20T00:01:34.862Z,44.11
2022-09-20T00:04:07.147Z,44.96
2022-09-20T00:06:34.907Z,44.74
2022-09-20T00:09:03.476Z,47.45
2022-09-20T00:11:33.522Z,45.92
2022-09-20T00:14:02.556Z,46.82
2022-09-20T00:16:32.861Z,46.31
2022-09-20T00:19:04.295Z,47.17
2022-09-20T00:21:34.365Z,47.11
2022-09-20T00:24:02.174Z,49.62
2022-09-20T00:26:29.857Z,49.88
2022-09-20T00:28:58.222Z,49.97
2022-09-20T00:31:26.246Z,51.19
2022-09-20T00:34:17.316Z,49.43
2022-09-20T00:36:45.339Z,49.14
2022-09-20T00:39:14.778Z,48.12
2022-09-20T00:41:42.925Z,48.10
2022-09-20T00:44:43.167Z,47.74
2022-09-20T00:47:16.635Z,48.35
2022-09-20T00:49:44.236Z,46.97
2022-09-20T00:52:13.757Z,46.77
2022-09-20T00:54:44.564Z,47.29
2022-09-20T00:57:12.481Z,45.93
2022-09-20T00:59:43.427Z,47.77
2022-09-20T01:02:54.152Z,46.48
2022-09-20T01:05:21.731Z,45.53
2022-09-20T01:07:51.246Z,45.64
2022-09-20T01:10:18.830Z,46.34
2022-09-20T01:12:49.042Z,45.98
2022-09-20T01:15:17.167Z,45.38
2022-09-20T01:17:49.621Z,46.51
2022-09-20T01:20:23.047Z,45.63
2022-09-20T01:23:05.738Z,46.32
2022-09-20T01:26:02.168Z,46.96
2022-09-20T01:28:30.749Z,49.04
2022-09-20T01:31:20.569Z,48.88
2022-09-20T01:33:53.886Z,48.66
2022-09-20T01:36:31.694Z,48.60
2022-09-20T01:39:04.941Z,47.63
2022-09-20T01:41:38.615Z,47.80
2022-09-20T01:44:24.571Z,47.48
2022-09-20T01:46:59.989Z,46.97
2022-09-20T01:49:33.270Z,47.60
2022-09-20T01:52:23.291Z,47.93
2022-09-20T01:54:59.647Z,47.61
2022-09-20T01:57:42.067Z,47.37
2022-09-20T02:00:15.747Z,47.51
2022-09-20T02:03:04.481Z,48.51
2022-09-20T02:05:32.076Z,49.67
2022-09-20T02:08:17.557Z,50.22
2022-09-20T02:11:08.153Z,48.99
2022-09-20T02:13:53.566Z,50.29
2022-09-20T02:16:29.762Z,50.03
2022-09-20T02:19:05.840Z,50.42
2022-09-20T02:22:18.122Z,50.21
2022-09-20T02:25:00.722Z,49.90
2022-09-20T02:27:53.867Z,49.42
2022-09-20T02:30:44.667Z,49.72
2022-09-20T02:33:57.584Z,49.94
2022-09-20T02:36:40.707Z,51.43
2022-09-20T02:39:17.484Z,50.48
2022-09-20T02:42:16.846Z,51.17
2022-09-20T02:44:54.888Z,51.15
2022-09-20T02:47:35.598Z,50.71
2022-09-20T02:50:22.023Z,51.26
2022-09-20T02:53:16.699Z,51.64
2022-09-20T02:56:11.532Z,52.14
2022-09-20T02:58:45.474Z,51.33
2022-09-20T03:01:25.037Z,52.20
2022-09-20T03:04:17.360Z,52.31
2022-09-20T03:07:01.573Z,52.25
2022-09-20T03:09:56.601Z,52.51
2022-09-20T03:12:38.208Z,52.29
2022-09-20T03:15:35.966Z,52.62
2022-09-20T03:18:14.002Z,52.85
2022-09-20T03:21:00.087Z,53.68
2022-09-20T03:23:58.473Z,53.23
2022-09-20T03:26:31.727Z,53.76
2022-09-20T03:29:09.056Z,52.91
2022-09-20T03:31:57.223Z,54.15
2022-09-20T03:34:48.888Z,52.79
2022-09-20T03:37:26.390Z,53.79
2022-09-20T03:40:12.292Z,54.46
2022-09-20T03:42:48.647Z,53.30
2022-09-20T03:45:46.567Z,53.50
2022-09-20T03:48:31.708Z,56.18
2022-09-20T03:51:17.560Z,55.79
2022-09-20T03:53:51.589Z,56.30
2022-09-20T03:56:38.011Z,55.94
2022-09-20T03:59:29.885Z,54.88
2022-09-20T04:02:10.001Z,53.89
2022-09-20T04:04:54.939Z,54.70
2022-09-20T04:07:44.792Z,57.84
2022-09-20T04:10:36.812Z,54.96
2022-09-20T04:13:29.002Z,54.80
2022-09-20T04:16:27.241Z,55.10
2022-09-20T04:19:04.338Z,55.68
2022-09-20T04:22:28.041Z,55.65
2022-09-20T04:24:53.722Z,53.75
2022-09-20T04:32:52.535Z,54.73
2022-09-20T04:37:41.019Z,54.98
2022-09-20T04:40:49.180Z,55.12
2022-09-20T04:52:30.586Z,52.06
2022-09-20T04:56:46.463Z,51.79
2022-09-20T05:01:36.437Z,50.40
2022-09-20T05:04:09.466Z,50.08
2022-09-20T05:07:13.966Z,50.31
2022-09-20T05:10:34.575Z,52.13
2022-09-20T05:13:13.867Z,52.53
2022-09-20T05:16:01.108Z,52.55
2022-09-20T05:19:02.339Z,55.30
2022-09-20T05:21:32.664Z,55.75
2022-09-20T05:24:30.042Z,55.12
2022-09-20T05:27:02.794Z,52.84
2022-09-20T05:30:12.574Z,55.18
2022-09-20T05:32:58.741Z,56.27
2022-09-20T05:35:44.077Z,56.11
2022-09-20T05:38:42.890Z,54.88
2022-09-20T05:41:41.159Z,53.61
2022-09-20T05:44:23.547Z,54.66
2022-09-20T05:47:05.154Z,57.07
2022-09-20T05:50:24.791Z,57.50
2022-09-20T05:53:04.530Z,56.26
2022-09-20T05:56:01.011Z,55.28
2022-09-20T05:58:46.347Z,55.20
2022-09-20T06:01:38.082Z,54.45
2022-09-20T06:04:22.527Z,53.32
2022-09-20T06:06:51.102Z,55.95
2022-09-20T06:09:55.714Z,56.02
2022-09-20T06:12:52.469Z,53.59
2022-09-20T06:15:26.175Z,53.11
2022-09-20T06:18:47.886Z,52.79
2022-09-20T06:21:42.727Z,51.53
2022-09-20T06:24:35.595Z,50.28
2022-09-20T06:27:10.801Z,54.79
2022-09-20T06:34:15.714Z,49.72
2022-09-20T06:37:09.659Z,49.82
2022-09-20T06:40:01.748Z,52.20
2022-09-20T06:42:29.661Z,51.63
2022-09-20T06:44:57.347Z,51.39
2022-09-20T06:47:29.135Z,47.79
2022-09-20T06:49:56.664Z,48.12
2022-09-20T06:53:16.517Z,49.70
2022-09-20T06:55:47.228Z,47.96
2022-09-20T06:58:15.720Z,46.19
2022-09-20T07:00:43.297Z,45.58
2022-09-20T07:03:12.684Z,45.79
2022-09-20T07:05:40.383Z,44.10
2022-09-20T07:08:07.894Z,41.89
2022-09-20T07:10:35.658Z,40.00
2022-09-20T07:13:03.192Z,36.38
2022-09-20T07:16:47.442Z,37.45
2022-09-20T07:19:16.782Z,36.36
2022-09-20T07:22:11.476Z,31.73
2022-09-20T07:24:39.084Z,30.47
2022-09-20T07:27:13.586Z,33.39
2022-09-20T07:29:43.615Z,33.47
2022-09-20T07:36:17.291Z,30.82
2022-09-20T07:58:04.631Z,28.33
2022-09-20T08:00:31.975Z,28.13
2022-09-20T08:03:00.237Z,27.25
2022-09-20T08:06:00.939Z,29.97
2022-09-20T08:08:29.265Z,26.52
2022-09-20T08:11:07.128Z,27.20
2022-09-20T08:14:05.771Z,27.62
2022-09-20T08:16:42.911Z,27.06
2022-09-20T08:19:19.242Z,28.46
2022-09-20T08:21:48.151Z,30.07
2022-09-20T08:24:16.444Z,30.94
2022-09-20T08:26:44.369Z,31.23
2022-09-20T08:29:13.385Z,30.33
2022-09-20T08:31:42.522Z,28.14
2022-09-20T08:34:12.678Z,28.28
2022-09-20T08:36:45.655Z,28.69
2022-09-20T08:42:27.277Z,30.63
2022-09-20T08:45:01.017Z,33.42
2022-09-20T08:47:36.743Z,28.63
2022-09-20T08:50:11.599Z,33.80
2022-09-20T08:52:44.358Z,34.44
2022-09-20T08:55:18.878Z,31.61
2022-09-20T08:57:55.337Z,29.04
2022-09-20T09:00:26.363Z,28.41
2022-09-20T09:02:56.263Z,29.00
2022-09-20T09:05:58.142Z,32.68
2022-09-20T09:08:28.633Z,35.73
2022-09-20T09:10:58.990Z,34.44
2022-09-20T09:13:35.732Z,32.75
2022-09-20T09:16:22.325Z,36.01
2022-09-20T09:18:51.825Z,33.90
2022-09-20T09:21:25.894Z,35.45
2022-09-20T09:24:02.783Z,37.48
2022-09-20T09:26:38.135Z,33.45
2022-09-20T09:29:15.038Z,32.82
2022-09-20T09:31:45.123Z,30.88
2022-09-20T09:34:30.061Z,28.75
2022-09-20T09:36:58.457Z,29.58
2022-09-20T09:39:34.489Z,31.66
2022-09-20T09:42:20.525Z,32.88
2022-09-20T09:44:50.442Z,32.62
2022-09-20T09:47:31.188Z,31.34
2022-09-20T09:50:02.870Z,28.36
2022-09-20T09:52:34.044Z,32.72
2022-09-20T09:55:05.308Z,34.13
2022-09-20T09:57:54.096Z,30.67
2022-09-20T10:00:23.743Z,33.11
2022-09-20T10:02:56.959Z,32.08
2022-09-20T10:06:06.084Z,33.94
2022-09-20T10:08:48.643Z,33.12
2022-09-20T10:11:21.873Z,34.09
2022-09-20T10:14:05.647Z,34.01
2022-09-20T10:17:02.630Z,32.62
2022-09-20T10:20:01.988Z,36.60
2022-09-20T10:22:38.268Z,36.52
2022-09-20T10:25:06.703Z,35.88
2022-09-20T10:27:51.878Z,37.19
2022-09-20T10:30:23.575Z,37.39
2022-09-20T10:33:03.744Z,39.80
2022-09-20T10:35:49.841Z,40.50
2022-09-20T10:38:35.840Z,37.25
2022-09-20T10:41:30.791Z,37.79
2022-09-20T10:44:07.112Z,37.38
2022-09-20T10:46:53.228Z,36.04
2022-09-20T10:49:28.224Z,37.01
2022-09-20T10:52:10.488Z,35.72
2022-09-20T10:55:16.641Z,36.23
2022-09-20T10:58:03.367Z,36.20
2022-09-20T11:01:12.161Z,35.50
2022-09-20T11:04:17.062Z,37.00
2022-09-20T11:07:19.609Z,37.21
2022-09-20T11:09:56.160Z,36.84
2022-09-20T11:12:39.516Z,35.81
2022-09-20T11:15:21.356Z,37.56
2022-09-20T11:18:23.261Z,39.67
2022-09-20T11:20:58.778Z,44.02
2022-09-20T11:23:34.306Z,40.10
2022-09-20T11:26:13.571Z,38.88
2022-09-20T11:28:44.911Z,38.47
2022-09-20T11:31:28.243Z,41.63
2022-09-20T11:34:03.488Z,39.22
2022-09-20T11:36:40.365Z,39.42
2022-09-20T11:39:28.007Z,38.10
2022-09-20T11:41:59.958Z,39.79
2022-09-20T11:44:27.911Z,38.00
2022-09-20T11:47:26.669Z,39.22
2022-09-20T11:50:34.631Z,38.94
2022-09-20T11:53:24.425Z,38.90
2022-09-20T11:56:18.025Z,41.04
2022-09-20T11:58:50.787Z,37.52
2022-09-20T12:01:29.394Z,38.02
2022-09-20T12:04:27.900Z,39.72
2022-09-20T12:07:08.325Z,40.05
2022-09-20T12:09:40.972Z,41.26
2022-09-20T12:12:32.728Z,39.53
2022-09-20T12:15:03.373Z,40.26
2022-09-20T12:17:48.181Z,42.83
2022-09-20T12:20:38.675Z,41.19
2022-09-20T12:23:41.567Z,41.81
2022-09-20T12:26:23.189Z,41.50
2022-09-20T12:28:59.025Z,45.28
2022-09-20T12:31:29.522Z,43.22
2022-09-20T12:34:12.226Z,42.35
2022-09-20T12:36:45.154Z,44.15
2022-09-20T12:39:23.337Z,42.38
2022-09-20T12:41:59.401Z,40.73
2022-09-20T12:44:37.193Z,41.76
2022-09-20T12:47:04.866Z,42.00
2022-09-20T12:49:55.888Z,42.91
2022-09-20T12:52:54.106Z,44.42
2022-09-20T12:55:32.807Z,43.90
2022-09-20T12:58:02.869Z,42.79
2022-09-20T13:00:51.543Z,40.29
2022-09-20T13:03:29.524Z,38.16
2022-09-20T13:06:07.303Z,38.88
2022-09-20T13:09:01.457Z,41.63
2022-09-20T13:11:44.983Z,40.58
2022-09-20T13:14:20.156Z,41.40
2022-09-20T13:16:59.022Z,38.92
2022-09-20T13:19:33.914Z,39.11
2022-09-20T13:22:28.671Z,40.36
2022-09-20T13:25:07.538Z,39.45
2022-09-20T13:27:42.958Z,40.35
2022-09-20T13:30:22.126Z,38.63
2022-09-20T13:32:51.582Z,38.84
2022-09-20T13:35:32.149Z,40.00
2022-09-20T13:38:07.374Z,40.67
2022-09-20T13:40:38.535Z,40.90
2022-09-20T13:43:25.035Z,41.74
2022-09-20T13:45:59.534Z,41.67
2022-09-20T13:48:29.240Z,40.56
2022-09-20T13:50:57.429Z,41.43
2022-09-20T13:53:41.030Z,40.15
2022-09-20T13:56:19.514Z,40.76
2022-09-20T13:58:48.303Z,38.76
2022-09-20T14:01:30.028Z,40.10
2022-09-20T14:04:06.957Z,38.25
2022-09-20T14:06:35.704Z,40.18
2022-09-20T14:09:11.106Z,40.52
2022-09-20T14:11:41.447Z,41.21
2022-09-20T14:14:12.568Z,40.69
2022-09-20T14:16:45.118Z,40.56
2022-09-20T14:19:17.153Z,39.32
2022-09-20T14:21:44.997Z,39.76
2022-09-20T14:24:14.686Z,40.43
2022-09-20T14:27:00.699Z,39.51
2022-09-20T14:29:28.083Z,39.52
2022-09-20T14:31:57.405Z,39.61
2022-09-20T14:34:25.270Z,40.14
2022-09-20T14:37:12.434Z,41.10
2022-09-20T14:39:54.685Z,40.92
2022-09-20T14:42:55.881Z,41.39
2022-09-20T14:45:33.740Z,40.77
2022-09-20T14:48:45.614Z,41.41
2022-09-20T14:51:16.573Z,41.19
2022-09-20T14:53:47.767Z,41.35
2022-09-20T14:56:17.059Z,40.87
2022-09-20T14:59:23.625Z,41.30
2022-09-20T15:02:13.424Z,41.72
2022-09-20T15:04:55.083Z,42.15
2022-09-20T15:07:22.555Z,40.72
2022-09-20T15:09:50.021Z,40.40
2022-09-20T15:12:19.860Z,41.36
2022-09-20T15:14:48.274Z,41.32
2022-09-20T15:17:18.594Z,41.09
2022-09-20T15:19:46.686Z,41.46
2022-09-20T15:22:15.244Z,40.39
2022-09-20T15:24:43.520Z,42.00
2022-09-20T15:27:12.315Z,42.08
2022-09-20T15:29:40.067Z,40.47
2022-09-20T15:32:11.010Z,41.24
2022-09-20T15:34:38.488Z,40.37
2022-09-20T15:37:06.065Z,40.30
2022-09-20T15:39:33.481Z,41.96
2022-09-20T15:42:01.467Z,41.17
2022-09-20T15:44:29.391Z,42.79
2022-09-20T15:46:56.796Z,41.24
2022-09-20T15:49:24.123Z,40.72
2022-09-20T15:51:53.162Z,39.46
2022-09-20T15:54:21.185Z,40.86
2022-09-20T15:56:49.250Z,39.76
2022-09-20T15:59:17.282Z,40.08
2022-09-20T16:01:45.655Z,42.40
2022-09-20T16:04:22.277Z,40.68
2022-09-20T16:06:52.106Z,41.73
2022-09-20T16:09:20.347Z,41.17
2022-09-20T16:11:50.812Z,41.19
2022-09-20T16:14:18.523Z,42.41
2022-09-20T16:16:47.163Z,42.79
2022-09-20T16:19:17.266Z,46.57
2022-09-20T16:21:59.418Z,42.05
2022-09-20T16:24:32.214Z,42.12
2022-09-20T16:27:03.895Z,42.42
2022-09-20T16:29:32.106Z,45.00
2022-09-20T16:32:00.754Z,44.08
2022-09-20T16:34:31.439Z,43.16
2022-09-20T16:36:59.985Z,48.57
2022-09-20T16:39:30.414Z,44.78
2022-09-20T16:42:05.942Z,44.84
2022-09-20T16:44:45.069Z,44.43
2022-09-20T16:47:25.570Z,45.06
2022-09-20T16:49:54.399Z,45.78
2022-09-20T16:52:22.138Z,44.66
2022-09-20T16:54:50.195Z,44.31
2022-09-20T16:57:17.688Z,44.84
2022-09-20T16:59:46.559Z,45.75
2022-09-20T17:02:14.227Z,45.64
2022-09-20T17:04:43.928Z,48.77
2022-09-20T17:07:14.770Z,48.33
2022-09-20T17:09:48.374Z,49.47
2022-09-20T17:12:22.058Z,47.40
2022-09-20T17:14:50.857Z,47.76
2022-09-20T17:17:22.070Z,49.69
2022-09-20T17:19:49.752Z,50.33
2022-09-20T17:22:17.455Z,48.82
2022-09-20T17:24:45.769Z,51.13
2022-09-20T17:27:13.274Z,51.01
2022-09-20T17:29:40.808Z,51.80
2022-09-20T17:32:08.394Z,52.77
2022-09-20T17:34:36.486Z,53.63
2022-09-20T17:37:04.956Z,54.68
2022-09-20T17:39:32.571Z,55.62
2022-09-20T17:42:01.472Z,55.73
2022-09-20T17:44:29.006Z,56.79
2022-09-20T17:46:56.670Z,57.68
2022-09-20T17:49:24.473Z,57.57
2022-09-20T17:51:54.581Z,58.76
2022-09-20T17:54:24.603Z,59.27
2022-09-20T17:56:56.098Z,59.10
2022-09-20T17:59:24.618Z,59.11
2022-09-20T18:01:52.415Z,60.53
2022-09-20T18:04:21.567Z,59.50
2022-09-20T18:06:51.899Z,60.08
2022-09-20T18:09:26.040Z,61.88
2022-09-20T18:12:05.622Z,61.50
2022-09-20T18:14:55.372Z,61.20
2022-09-20T18:17:37.493Z,61.15
2022-09-20T18:20:15.567Z,61.69
2022-09-20T18:22:43.509Z,61.69
2022-09-20T18:25:13.323Z,61.06
2022-09-20T18:27:55.566Z,61.09
2022-09-20T18:30:36.972Z,62.79
2022-09-20T18:33:08.426Z,62.88
2022-09-20T18:35:37.203Z,62.79
2022-09-20T18:38:06.310Z,63.61
2022-09-20T18:40:36.800Z,62.64
2022-09-20T18:43:05.465Z,63.04
2022-09-20T18:45:33.781Z,62.71
2022-09-20T18:48:01.671Z,62.79
2022-09-20T18:50:42.088Z,63.30
2022-09-20T18:53:10.151Z,62.85
2022-09-20T18:55:37.981Z,61.18
2022-09-20T18:58:05.776Z,61.12
2022-09-20T19:00:34.140Z,61.56
2022-09-20T19:03:19.702Z,61.66
2022-09-20T19:05:58.989Z,61.66
2022-09-20T19:08:47.382Z,61.55
2022-09-20T19:11:27.383Z,61.02
2022-09-20T19:14:03.147Z,61.42
2022-09-20T19:16:37.072Z,61.35
2022-09-20T19:19:46.662Z,61.79
2022-09-20T19:22:30.978Z,62.96
2022-09-20T19:25:16.504Z,62.37
2022-09-20T19:27:44.504Z,62.73
2022-09-20T19:30:16.933Z,63.17
2022-09-20T19:35:53.297Z,63.52
2022-09-20T19:38:28.064Z,63.97
2022-09-20T19:41:19.817Z,64.35
2022-09-20T19:44:07.605Z,63.30
2022-09-20T19:46:47.272Z,63.67
2022-09-20T19:49:44.301Z,64.72
2022-09-20T19:52:13.794Z,65.72
2022-09-20T19:54:46.992Z,64.95
2022-09-20T19:57:23.155Z,64.48
2022-09-20T19:59:51.258Z,64.92
2022-09-20T20:02:19.145Z,64.97
2022-09-20T20:04:48.127Z,66.14
2022-09-20T20:07:57.095Z,65.19
2022-09-20T20:10:35.439Z,64.25
2022-09-20T20:13:33.790Z,63.81
2022-09-20T20:16:04.945Z,63.21
2022-09-20T20:18:52.860Z,64.03
2022-09-20T20:21:51.703Z,63.18
2022-09-20T20:24:44.595Z,63.37
2022-09-20T20:27:17.478Z,63.36
2022-09-20T20:29:53.191Z,63.54
2022-09-20T20:32:21.224Z,63.91
2022-09-20T20:35:07.836Z,63.17
2022-09-20T20:37:36.182Z,62.92
2022-09-20T20:40:04.172Z,63.32
2022-09-20T20:42:34.462Z,62.98
2022-09-20T20:45:03.565Z,63.11
2022-09-20T20:47:31.139Z,62.78
2022-09-20T20:49:58.853Z,63.26
2022-09-20T20:52:27.047Z,62.78
2022-09-20T20:55:06.773Z,62.37
2022-09-20T20:57:40.203Z,62.20
2022-09-20T21:00:11.129Z,62.30
2022-09-20T21:06:40.215Z,62.22
2022-09-20T21:09:09.211Z,61.95
2022-09-20T21:11:39.117Z,62.16
2022-09-20T21:14:09.338Z,62.86
2022-09-20T21:16:43.350Z,61.95
2022-09-20T21:19:16.004Z,63.27
2022-09-20T21:21:49.147Z,63.06
2022-09-20T21:24:19.771Z,63.02
2022-09-20T21:27:15.878Z,62.38
2022-09-20T21:29:48.766Z,61.48
2022-09-20T21:32:31.819Z,61.50
2022-09-20T21:35:02.469Z,62.34
2022-09-20T21:37:35.811Z,61.78
2022-09-20T21:40:19.466Z,62.97
2022-09-20T21:42:52.805Z,63.37
2022-09-20T21:45:24.969Z,64.04
2022-09-20T21:47:53.120Z,63.98
2022-09-20T21:50:23.512Z,62.25
2022-09-20T21:52:59.877Z,61.80
2022-09-20T21:55:28.197Z,60.86
2022-09-20T21:57:56.298Z,61.22
2022-09-20T22:00:27.524Z,61.39
2022-09-20T22:02:59.475Z,60.79
2022-09-20T22:05:27.342Z,61.58
2022-09-20T22:07:56.630Z,61.36
2022-09-20T22:10:26.840Z,60.67
2022-09-20T22:12:54.587Z,60.40
2022-09-20T22:15:23.497Z,60.90
2022-09-20T22:17:54.169Z,60.49
2022-09-20T22:20:22.171Z,60.30
2022-09-20T22:22:50.012Z,60.87
2022-09-20T22:25:22.062Z,61.32
2022-09-20T22:27:49.574Z,61.07
2022-09-20T22:30:17.190Z,61.53
2022-09-20T22:32:45.144Z,60.98
2022-09-20T22:35:14.524Z,61.70
2022-09-20T22:37:42.036Z,61.78
2022-09-20T22:40:10.227Z,62.02
2022-09-20T22:42:38.368Z,61.05
2022-09-20T22:45:08.309Z,60.68
2022-09-20T22:47:35.804Z,60.80
2022-09-20T22:50:03.428Z,61.08
2022-09-20T22:52:31.027Z,60.87
2022-09-20T22:54:58.780Z,61.14
2022-09-20T22:57:27.006Z,61.56
2022-09-20T22:59:54.576Z,60.61
2022-09-20T23:02:22.333Z,60.92
2022-09-20T23:04:49.928Z,60.57
2022-09-20T23:07:19.630Z,60.93
2022-09-20T23:09:48.092Z,60.41
2022-09-20T23:12:15.653Z,60.60
2022-09-20T23:14:43.243Z,60.99
2022-09-20T23:17:10.761Z,61.48
2022-09-20T23:19:38.220Z,60.66
2022-09-20T23:22:05.674Z,61.13
2022-09-20T23:24:33.292Z,61.13
